Taylors, SC (29687)

12:26 AM EST on March 02, 2015 (GMT -0500)
Edward's Forest | Change Station
CLOSE
Current Station
Personal Weather Station
Location: Taylors, SC
Elevation: 1000 ft
Nearby Weather Stations

Elev 1000 ft 34.93 °N, 82.33 °W | Updated 2 seconds ago

Overcast
Overcast
42.9 °F
Feels Like 43 °F
N
1.0
Wind Variable Wind from WNW
Gusts 3.0 mph

Today
High -- | Low -- °F
--% Chance of Precip.
Yesterday
High -- | Low -- °F
Precip. -- in
6:57 AM 6:25 PM
Waxing Gibbous, 89% visible
Pressure 30.32 in
Visibility 1.8 miles
Clouds Overcast 200 ft
Windchill 43 °F
Dew Point 42 °F
Humidity 96%
Rainfall 0.00 in
Snow Depth Not available.
UV 0 out of 12
Pollen 4.50 out of 12
Air Quality Not available.
Flu Activity Not available.
SPECI KGMU 020522Z AUTO 26009KT 1 3/4SM BR OVC002 06/05 A3032 RMK AO2 T00610050

More Conditions Fewer Conditions

Pressure 30.32 in
Visibility 1.8 miles
Clouds Overcast 200 ft
Windchill 43 °F
Dew Point 42 °F
Humidity 96%
Rainfall 0.00 in
Snow Depth Not available.
UV 0 out of 12
Pollen 4.50 out of 12
Air Quality Not available.
Flu Activity Not available.
SPECI KGMU 020522Z AUTO 26009KT 1 3/4SM BR OVC002 06/05 A3032 RMK AO2 T00610050

More Conditions Fewer Conditions

10-Day Weather Forecast

Almanac

Astronomy

Mar. 02, 2015 Rise Set
Actual Time
Civil Twilight
Nautical Twilight
Astronomical Twilight
Moon
Length of Visible Light
Length of Day
Tomorrow will be .
, % of the Moon is Illuminated

Today's Extremes

State Highs State Lows

Community

WunderPhotos

Upload Photos

1,801,731 photos uploaded!

WunderBlogs® & News

Nearby

Air Quality

  Air Quality AQ Index Pollutant
Not available.

Snow Depth

Station Depth Elevation

Earthquake Activity

City Distance Mag. Time & Date
Minimum magnitude displayed is 2.5.

Coastal Water Temperatures

Place Temperature

Nearby Weather Stations